Twin Springs, Nevada Weather observations

Data are for observation ending at time listed.
 Day   Time    Ave.   Ave.  Ave.  Vector   Max.   Stn.    Total    Solar   Ave.  
  of    of     Air    Rel.  Wind   Wind    Wind   Baro.  Precip.   Rad.    Soil  
Year   Day     Temp.  Hum.  Speed  Dir.    Gust   Pres.                    Temp. 
2014   (PST)    F      %     mph   deg.    mph     mb.     in.     W/m2     F   
------------------------------------------------------------------------------
 294    2:00   58.9    36    6.6   106     13.4    841     0.00       0    62.3
 294    3:00   55.9    42    6.5   121     10.9    841     0.00       0    61.6
 294    4:00   55.6    42    4.6   185     13.4    841     0.00       0    61.0
 294    5:00   52.1    48    4.3   340      8.8    842     0.00       0    60.5
 294    6:00   51.4    50    2.8   349      8.5    842     0.00       0    59.8
 294    7:00   52.7    41    2.8   324      7.2    842     0.00      76    59.2
 294    8:00   57.5    30    6.4   354     11.4    843     0.00     276    58.5
 294    9:00   63.3    21    5.0   273     10.2    843     0.00     473    58.5
 294   10:00   65.6    22    3.9   295      8.5    843     0.00     583    59.3
 294   11:00   68.2    17    2.4   349      8.3    843     0.00     680    60.8
 294   12:00   68.4    15    4.5   305     13.4    842     0.00     657    62.8
 294   13:00   69.7    12    6.6   270     15.3    841     0.00     427    65.3
 294   14:00   69.3    11    6.3   269     15.1    841     0.00     376    66.9
 294   15:00   69.4     9    5.8   245     13.7    841     0.00     310    67.5
 294   16:00   67.2     9    5.5   223     12.3    841     0.00     104    67.7
 294   17:00   66.8     9    5.0   261     11.8    841     0.00      70    67.2
 294   18:00   61.7    10    2.2   269      7.2    841     0.00       1    66.5
 294   19:00   57.9    12    3.3   353     10.6    842     0.00       0    65.5
 294   20:00   53.6    16    3.2   329      7.7    842     0.00       0    64.4
 294   21:00   49.9    20    1.7   342      6.1    843     0.00       0    63.3
 294   22:00   46.1    23    2.4   115      5.1    844     0.00       0    62.3
 294   23:00   45.2    25    2.5    24      5.6    844     0.00       0    61.1
 295    0:00   40.8    30    5.1   333      9.6    844     0.00       0    60.0
 295    1:00   42.0    28    5.1   359      7.2    844     0.00       0    59.0

Return to Twin Springs, Nevada graphs page.


Western Regional Climate Center,wrcc@dri.edu